Time;durP1;ratioP1;P1;durP2;ratioP2;P2;SDS_P1;SDS_P2;PMS_P1;PMS_P2;Temp;Humidity;BMP_temperature;BMP_pressure;BME280_temperature;BME280_humidity;BME280_pressure;Samples;Min_cycle;Max_cycle;Signal;HPM_P1;HPM_P2
2022/06/11 00:01:04;;;;;;;17.83;15.60;;;;;;;19.30;100.00;99790.91;5000910;28;20049;-72
2022/06/11 00:03:30;;;;;;;24.10;16.52;;;;;;;19.38;100.00;99803.03;5018013;28;20668;-72
2022/06/11 00:05:56;;;;;;;21.17;15.43;;;;;;;19.33;100.00;99785.66;5030011;28;20029;-71
2022/06/11 00:08:22;;;;;;;18.08;15.05;;;;;;;19.37;100.00;99797.81;5028797;28;20407;-72
2022/06/11 00:10:48;;;;;;;17.80;15.40;;;;;;;19.43;100.00;99794.25;5029911;28;20025;-71
2022/06/11 00:13:14;;;;;;;17.67;14.52;;;;;;;19.34;100.00;99776.88;5029899;28;20562;-72
2022/06/11 00:15:41;;;;;;;18.67;14.90;;;;;;;19.33;100.00;99775.19;5032160;28;20472;-71
2022/06/11 00:18:07;;;;;;;20.77;15.68;;;;;;;19.28;100.00;99783.06;5022106;28;20447;-71
2022/06/11 00:20:33;;;;;;;18.27;16.30;;;;;;;19.31;100.00;99782.16;5033535;28;20033;-71
2022/06/11 00:22:59;;;;;;;17.90;15.75;;;;;;;19.20;100.00;99785.75;5033648;28;20037;-71
2022/06/11 00:25:25;;;;;;;20.58;16.50;;;;;;;19.27;100.00;99793.56;5033716;28;20025;-71
2022/06/11 00:27:50;;;;;;;23.58;17.35;;;;;;;19.18;100.00;99795.38;5033895;28;20025;-72
2022/06/11 00:30:18;;;;;;;22.38;16.80;;;;;;;19.17;100.00;99796.25;5033479;28;20025;-72
2022/06/11 00:32:45;;;;;;;19.23;17.23;;;;;;;19.13;100.00;99796.28;5031415;28;20053;-72
2022/06/11 00:35:11;;;;;;;18.77;16.95;;;;;;;18.90;100.00;99772.09;5033472;28;20508;-71
2022/06/11 00:37:38;;;;;;;23.63;16.60;;;;;;;19.06;100.00;99790.25;5033904;28;20028;-71
2022/06/11 00:40:05;;;;;;;18.23;16.33;;;;;;;18.90;100.00;99772.09;5033525;28;20022;-72
2022/06/11 00:42:33;;;;;;;18.65;15.13;;;;;;;18.98;100.00;99802.50;5033615;28;20125;-71
2022/06/11 00:45:28;;;;;;;19.15;15.30;;;;;;;18.91;100.00;99788.63;5033729;28;20451;-71
2022/06/11 00:48:25;;;;;;;21.80;15.75;;;;;;;18.88;100.00;99791.25;5019589;28;20022;-71
2022/06/11 00:51:05;;;;;;;23.65;15.65;;;;;;;18.65;100.00;99760.91;5033653;28;20117;-71
2022/06/11 00:54:00;;;;;;;17.83;14.85;;;;;;;18.97;100.00;99795.56;5047884;28;20041;-71
2022/06/11 00:56:34;;;;;;;24.65;16.52;;;;;;;18.92;100.00;99787.75;4973000;28;20050;-72
2022/06/11 00:59:04;;;;;;;20.25;16.73;;;;;;;18.90;100.00;99776.41;4995616;28;20030;-71
2022/06/11 01:01:30;;;;;;;20.08;16.50;;;;;;;18.89;100.00;99783.38;5011103;28;20569;-71
2022/06/11 01:03:58;;;;;;;22.10;16.77;;;;;;;18.94;100.00;99786.00;4993898;28;20034;-73
2022/06/11 01:06:53;;;;;;;26.08;16.88;;;;;;;18.98;100.00;99792.03;4984168;28;20046;-72
2022/06/11 01:09:32;;;;;;;25.55;17.60;;;;;;;19.01;100.00;99787.66;4989646;28;20544;-73
2022/06/11 01:12:26;;;;;;;22.02;16.92;;;;;;;19.01;100.00;99787.66;4990414;28;20034;-71
2022/06/11 01:15:24;;;;;;;20.50;16.85;;;;;;;18.99;100.00;99785.94;4990202;28;20034;-70
2022/06/11 01:18:09;;;;;;;22.63;17.73;;;;;;;18.98;100.00;99785.09;4875634;29;20049;-71
2022/06/11 01:21:00;;;;;;;25.95;18.55;;;;;;;19.00;100.00;99787.69;4893353;29;20552;-71
2022/06/11 01:23:46;;;;;;;22.58;18.20;;;;;;;18.96;100.00;99793.81;4821169;29;20609;-71
2022/06/11 01:26:37;;;;;;;23.63;18.42;;;;;;;18.91;100.00;99788.63;4810366;29;20072;-70
2022/06/11 01:29:46;;;;;;;24.63;18.38;;;;;;;18.82;100.00;99786.91;4820677;29;20042;-72
2022/06/11 01:32:15;;;;;;;21.63;18.33;;;;;;;18.74;100.00;99792.22;4796876;29;20143;-71
2022/06/11 01:34:45;;;;;;;22.15;17.90;;;;;;;18.74;100.00;99787.00;4802020;29;20134;-73
2022/06/11 01:37:23;;;;;;;22.50;17.52;;;;;;;18.60;100.00;99754.84;4801810;29;20483;-72
2022/06/11 01:40:05;;;;;;;26.30;17.10;;;;;;;18.79;100.00;99792.19;4802055;29;20031;-71
2022/06/11 01:42:42;;;;;;;19.30;17.30;;;;;;;18.82;100.00;99791.31;4801397;29;20054;-72
2022/06/11 01:45:28;;;;;;;20.33;17.67;;;;;;;18.78;100.00;99792.19;4802472;29;20561;-71
2022/06/11 01:47:56;;;;;;;23.70;17.60;;;;;;;18.81;100.00;99792.16;4802500;29;20054;-71
2022/06/11 01:50:25;;;;;;;18.45;16.48;;;;;;;18.85;100.00;99791.25;4807062;29;20572;-71
2022/06/11 01:53:14;;;;;;;24.73;18.08;;;;;;;18.83;100.00;99782.56;4801735;29;20497;-71
2022/06/11 01:55:45;;;;;;;23.60;17.17;;;;;;;18.85;100.00;99773.81;4881747;29;20037;-70
2022/06/11 01:58:44;;;;;;;25.38;17.83;;;;;;;18.79;100.00;99776.50;4894321;29;20227;-71
2022/06/11 02:01:31;;;;;;;24.50;19.23;;;;;;;18.80;100.00;99775.59;4920924;29;20043;-73
2022/06/11 02:04:22;;;;;;;29.88;18.27;;;;;;;18.80;100.00;99772.97;4932110;29;20071;-72
2022/06/11 02:07:10;;;;;;;26.10;17.52;;;;;;;18.75;100.00;99770.44;4931352;29;20054;-71
2022/06/11 02:09:53;;;;;;;24.73;17.27;;;;;;;18.79;100.00;99775.63;4898654;29;20149;-71
2022/06/11 02:12:39;;;;;;;19.52;16.58;;;;;;;18.81;100.00;99789.56;4912472;29;20150;-71
2022/06/11 02:15:24;;;;;;;20.45;16.88;;;;;;;18.84;100.00;99792.13;4911154;29;20154;-71
2022/06/11 02:17:54;;;;;;;21.77;17.25;;;;;;;18.82;100.00;99784.31;4912058;29;20062;-71
2022/06/11 02:20:24;;;;;;;20.42;17.02;;;;;;;18.81;100.00;99766.88;4912939;29;20089;-72
2022/06/11 02:22:57;;;;;;;20.38;16.80;;;;;;;18.85;100.00;99763.34;4912638;29;20173;-71
2022/06/11 02:25:31;;;;;;;19.20;17.00;;;;;;;18.88;100.00;99778.19;4912511;29;20519;-70
2022/06/11 02:27:59;;;;;;;19.50;16.65;;;;;;;18.82;100.00;99758.16;4912477;29;20071;-72
2022/06/11 02:30:27;;;;;;;18.57;16.60;;;;;;;18.95;100.00;99761.56;4896338;29;20483;-72
2022/06/11 02:32:53;;;;;;;21.17;18.27;;;;;;;18.88;100.00;99763.34;4928581;29;20043;-71
2022/06/11 02:35:58;;;;;;;19.00;17.00;;;;;;;18.78;100.00;99752.97;4950492;29;20062;-72
2022/06/11 02:38:25;;;;;;;19.48;16.45;;;;;;;18.81;100.00;99753.81;4911627;29;20051;-72
2022/06/11 02:40:56;;;;;;;19.02;16.70;;;;;;;18.85;100.00;99752.88;4911695;29;20075;-72
2022/06/11 02:43:22;;;;;;;19.27;17.10;;;;;;;18.74;100.00;99720.72;4912425;29;20424;-71
2022/06/11 02:45:47;;;;;;;19.70;16.63;;;;;;;18.86;100.00;99745.94;4921160;28;20081;-71
2022/06/11 02:48:13;;;;;;;23.20;16.58;;;;;;;18.82;100.00;99737.25;4945744;29;20565;-72
2022/06/11 02:50:40;;;;;;;20.77;17.02;;;;;;;18.85;100.00;99739.81;4964098;28;20039;-72
2022/06/11 02:53:07;;;;;;;21.60;17.42;;;;;;;18.73;100.00;99709.41;4969490;28;20034;-74
2022/06/11 02:55:34;;;;;;;20.98;17.08;;;;;;;18.81;100.00;99719.81;4969365;28;21170;-72
2022/06/11 02:58:00;;;;;;;22.23;17.88;;;;;;;18.86;100.00;99728.47;4969242;28;20126;-72
2022/06/11 03:00:30;;;;;;;24.77;18.25;;;;;;;18.95;100.00;99732.78;4969297;28;20573;-71
2022/06/11 03:02:56;;;;;;;23.85;18.65;;;;;;;18.95;100.00;99732.78;4969261;28;20066;-72
2022/06/11 03:05:28;;;;;;;23.80;19.42;;;;;;;18.91;100.00;99716.25;4969689;28;20042;-71
2022/06/11 03:07:54;;;;;;;29.23;21.52;;;;;;;19.01;100.00;99734.50;4968733;28;20039;-71
2022/06/11 03:10:22;;;;;;;35.22;20.23;;;;;;;19.06;100.00;99730.94;4969333;28;20747;-69
2022/06/11 03:12:47;;;;;;;43.28;21.70;;;;;;;19.12;100.00;99730.00;4972353;28;20171;-69
2022/06/11 03:15:15;;;;;;;44.00;21.45;;;;;;;19.20;100.00;99741.28;5030662;28;20063;-71
2022/06/11 03:17:41;;;;;;;37.75;21.60;;;;;;;19.28;100.00;99741.19;5021634;28;20108;-71
2022/06/11 03:20:07;;;;;;;44.47;20.88;;;;;;;19.18;100.00;99713.41;5029068;28;20104;-72
2022/06/11 03:22:33;;;;;;;38.47;21.88;;;;;;;19.37;100.00;99730.63;5037232;28;20562;-71
2022/06/11 03:24:59;;;;;;;33.40;19.90;;;;;;;19.39;100.00;99726.25;5043618;28;20043;-72
2022/06/11 03:27:25;;;;;;;22.55;18.60;;;;;;;19.44;100.00;99731.44;5047855;28;20068;-72
2022/06/11 03:29:51;;;;;;;23.63;17.73;;;;;;;19.38;100.00;99721.03;5047546;28;20082;-72
2022/06/11 03:32:18;;;;;;;27.13;18.77;;;;;;;19.41;100.00;99734.06;5047541;28;20483;-72
2022/06/11 03:34:44;;;;;;;25.48;16.48;;;;;;;19.31;100.00;99738.53;5047496;28;20060;-72
2022/06/11 03:37:10;;;;;;;31.85;17.52;;;;;;;19.30;100.00;99734.22;5046726;28;20139;-72
2022/06/11 03:39:35;;;;;;;20.63;17.38;;;;;;;19.45;100.00;99745.38;5047549;28;20116;-72
2022/06/11 03:42:01;;;;;;;27.42;17.73;;;;;;;19.33;100.00;99739.41;5047330;28;20128;-70
2022/06/11 03:44:27;;;;;;;20.77;17.67;;;;;;;19.43;100.00;99739.28;5047686;28;20068;-72
2022/06/11 03:46:52;;;;;;;32.45;18.40;;;;;;;19.48;100.00;99753.22;5047445;28;20183;-72
2022/06/11 03:49:19;;;;;;;32.95;17.08;;;;;;;19.48;100.00;99747.97;5047064;28;20505;-72
2022/06/11 03:51:45;;;;;;;33.65;17.23;;;;;;;19.53;100.00;99757.50;5046901;28;20122;-72
2022/06/11 03:54:12;;;;;;;24.00;16.10;;;;;;;19.49;100.00;99754.91;5033778;28;20050;-73
2022/06/11 03:56:39;;;;;;;20.20;15.45;;;;;;;19.55;100.00;99776.69;5020408;28;20026;-73
2022/06/11 03:59:06;;;;;;;19.15;15.52;;;;;;;19.49;100.00;99778.47;5026474;28;20029;-72
2022/06/11 04:01:33;;;;;;;19.90;15.85;;;;;;;19.51;100.00;99792.44;5030255;28;20121;-72
2022/06/11 04:04:02;;;;;;;25.55;16.48;;;;;;;19.62;100.00;99805.41;5029565;28;20034;-72
2022/06/11 04:06:31;;;;;;;29.05;17.58;;;;;;;19.60;100.00;99805.44;5029917;28;20026;-72
2022/06/11 04:08:57;;;;;;;;;;;;;;;19.65;100.00;99808.88;5030631;28;20037;-72
2022/06/11 04:11:22;;;;;;;19.58;15.50;;;;;;;19.71;100.00;99806.19;5030184;28;19916;-72
2022/06/11 04:13:50;;;;;;;20.05;15.45;;;;;;;19.75;100.00;99819.22;5029871;28;20025;-70
2022/06/11 04:16:39;;;;;;;23.88;15.13;;;;;;;19.56;100.00;99790.63;5029693;28;20104;-72
2022/06/11 04:19:07;;;;;;;20.25;14.73;;;;;;;19.64;100.00;99808.88;5016528;28;20443;-72
2022/06/11 04:21:34;;;;;;;23.85;15.43;;;;;;;19.60;100.00;99820.25;5028019;28;20068;-75
2022/06/11 04:24:01;;;;;;;22.17;15.40;;;;;;;19.60;100.00;99815.03;5017618;28;20496;-72
2022/06/11 04:26:31;;;;;;;27.75;17.67;;;;;;;19.59;100.00;99822.03;5029792;28;20080;-72
2022/06/11 04:28:59;;;;;;;31.77;16.23;;;;;;;19.61;100.00;99822.00;5029720;28;20032;-72
2022/06/11 04:31:27;;;;;;;24.88;16.92;;;;;;;19.59;100.00;99823.75;5029666;28;20063;-72
2022/06/11 04:33:54;;;;;;;26.15;16.02;;;;;;;19.59;100.00;99831.63;5029579;28;20052;-72
2022/06/11 04:36:23;;;;;;;22.13;16.45;;;;;;;19.60;100.00;99830.72;5029754;28;20045;-73
2022/06/11 04:38:49;;;;;;;32.20;19.45;;;;;;;19.21;100.00;99755.22;5029682;28;20025;-72
2022/06/11 04:41:16;;;;;;;25.13;18.63;;;;;;;19.70;100.00;99827.13;5029658;28;20026;-72
2022/06/11 04:43:41;;;;;;;22.92;18.95;;;;;;;19.73;100.00;99834.97;5029448;28;20473;-72
2022/06/11 04:46:07;;;;;;;20.85;17.02;;;;;;;19.78;100.00;99829.69;5029681;28;20032;-73
2022/06/11 04:48:33;;;;;;;21.25;18.45;;;;;;;19.84;100.00;99827.88;5029662;28;20033;-72
2022/06/11 04:51:00;;;;;;;21.70;17.75;;;;;;;19.85;100.00;99802.53;5028154;28;20056;-73
2022/06/11 04:53:25;;;;;;;27.00;19.25;;;;;;;19.96;100.00;99818.16;5029209;28;20396;-73
2022/06/11 04:55:51;;;;;;;19.92;17.50;;;;;;;20.07;100.00;99831.97;5027074;28;20045;-73
2022/06/11 04:58:17;;;;;;;21.15;18.52;;;;;;;20.12;100.00;99829.31;5028980;28;20026;-73
2022/06/11 05:00:43;;;;;;;21.85;18.05;;;;;;;20.19;100.00;99842.31;5029448;28;20029;-73
2022/06/11 05:03:09;;;;;;;21.67;17.67;;;;;;;20.18;100.00;99843.19;5033055;28;20070;-73
2022/06/11 05:05:34;;;;;;;20.38;18.05;;;;;;;20.24;100.00;99851.84;5033000;28;20029;-73
2022/06/11 05:08:01;;;;;;;20.17;17.67;;;;;;;20.25;100.00;99861.47;5027356;28;20546;-73
2022/06/11 05:10:28;;;;;;;19.45;17.40;;;;;;;20.24;100.00;99854.47;5023088;28;20381;-73
2022/06/11 05:12:54;;;;;;;19.73;17.63;;;;;;;20.32;100.00;99861.34;5012500;28;20042;-72
2022/06/11 05:15:21;;;;;;;19.75;17.65;;;;;;;20.34;100.00;99850.88;5019608;28;20060;-74
2022/06/11 05:17:47;;;;;;;19.48;17.15;;;;;;;20.33;100.00;99859.63;5012553;28;20022;-73
2022/06/11 05:20:14;;;;;;;21.85;17.40;;;;;;;20.37;100.00;99863.91;5015725;28;20427;-73
2022/06/11 05:22:40;;;;;;;19.83;17.20;;;;;;;20.25;100.00;99849.25;5021828;28;20483;-73
2022/06/11 05:25:06;;;;;;;18.98;17.02;;;;;;;20.23;100.00;99837.03;5029678;28;20038;-72
2022/06/11 05:27:32;;;;;;;18.85;17.00;;;;;;;20.38;100.00;99872.69;5013673;28;20393;-72
2022/06/11 05:30:01;;;;;;;18.02;15.60;;;;;;;20.38;100.00;99888.41;5032518;28;20037;-72
2022/06/11 05:32:29;;;;;;;21.97;16.13;;;;;;;20.34;100.00;99874.47;5032664;28;20078;-72
2022/06/11 05:34:57;;;;;;;17.40;15.65;;;;;;;20.36;100.00;99886.66;5025783;28;20289;-76
2022/06/11 05:37:23;;;;;;;16.48;14.85;;;;;;;20.32;100.00;99891.94;5031340;28;20025;-74
2022/06/11 05:39:49;;;;;;;15.98;14.40;;;;;;;20.32;100.00;99891.94;5032528;28;20025;-74
2022/06/11 05:42:17;;;;;;;17.80;15.18;;;;;;;20.31;100.00;99892.84;5031610;28;20162;-74
2022/06/11 05:44:43;;;;;;;17.52;15.55;;;;;;;20.30;100.00;99901.59;5032398;28;20030;-74
2022/06/11 05:47:12;;;;;;;16.63;14.15;;;;;;;20.26;100.00;99897.28;5027854;28;20087;-74
2022/06/11 05:49:40;;;;;;;16.83;14.60;;;;;;;20.32;100.00;99897.19;5032218;28;20391;-73
2022/06/11 05:52:11;;;;;;;15.52;13.93;;;;;;;20.28;100.00;99900.75;5031749;28;20108;-73
2022/06/11 05:54:40;;;;;;;15.23;13.68;;;;;;;20.30;100.00;99894.59;5031775;28;20048;-72
2022/06/11 05:57:11;;;;;;;14.50;12.98;;;;;;;20.24;100.00;99896.41;5031677;28;20493;-73
2022/06/11 05:59:43;;;;;;;14.73;12.85;;;;;;;20.27;100.00;99893.78;5032421;28;20028;-73
2022/06/11 06:02:11;;;;;;;13.93;12.52;;;;;;;20.19;100.00;99899.97;5032063;28;20024;-75
2022/06/11 06:04:37;;;;;;;12.80;11.35;;;;;;;20.23;100.00;99899.94;5032532;28;20029;-71
2022/06/11 06:07:05;;;;;;;13.68;11.57;;;;;;;20.10;100.00;99873.88;5031626;28;20100;-74
2022/06/11 06:09:30;;;;;;;12.77;11.48;;;;;;;20.03;100.00;99880.06;5031467;28;20035;-73
2022/06/11 06:11:56;;;;;;;12.88;10.70;;;;;;;20.16;100.00;99899.13;5032031;28;20030;-76
2022/06/11 06:14:21;;;;;;;14.77;11.05;;;;;;;19.96;100.00;99865.31;5031530;28;20053;-73
2022/06/11 06:16:47;;;;;;;12.88;11.07;;;;;;;20.09;100.00;99898.34;5030620;28;20029;-73
2022/06/11 06:19:12;;;;;;;14.82;11.52;;;;;;;20.08;100.00;99906.22;5031681;28;20033;-73
2022/06/11 06:21:38;;;;;;;16.20;13.18;;;;;;;20.11;100.00;99911.41;5029025;28;20030;-73
2022/06/11 06:24:04;;;;;;;15.18;12.20;;;;;;;20.11;100.00;99908.81;5020321;28;20030;-71
2022/06/11 06:26:30;;;;;;;14.07;12.23;;;;;;;20.01;100.00;99889.69;5031573;28;20025;-73
2022/06/11 06:28:56;;;;;;;15.07;13.15;;;;;;;19.80;100.00;99864.56;5031579;28;20464;-74
2022/06/11 06:31:22;;;;;;;13.50;12.10;;;;;;;19.90;100.00;99913.41;5030113;28;20033;-75
2022/06/11 06:33:50;;;;;;;15.95;13.50;;;;;;;19.87;100.00;99908.19;5031204;28;20487;-70
2022/06/11 06:36:16;;;;;;;14.38;12.88;;;;;;;19.84;100.00;99919.56;5031131;28;20503;-73
2022/06/11 06:38:43;;;;;;;15.25;12.98;;;;;;;19.78;100.00;99924.84;5029904;28;20029;-74
2022/06/11 06:41:09;;;;;;;16.33;13.35;;;;;;;19.76;100.00;99921.34;5031554;28;20115;-73
2022/06/11 06:43:34;;;;;;;14.82;13.30;;;;;;;19.73;100.00;99916.16;5031256;28;20477;-72
2022/06/11 06:46:00;;;;;;;15.75;13.18;;;;;;;19.77;100.00;99923.09;5031319;28;20102;-71
2022/06/11 06:48:26;;;;;;;13.80;12.40;;;;;;;19.64;100.00;99895.28;5031423;28;20065;-74
2022/06/11 06:50:53;;;;;;;13.65;12.10;;;;;;;19.77;100.00;99917.00;5031188;28;20076;-72
2022/06/11 06:53:20;;;;;;;13.88;11.07;;;;;;;19.80;100.00;99916.94;5029833;28;20040;-73
2022/06/11 06:55:45;;;;;;;11.15;9.95;;;;;;;19.87;100.00;99924.75;5030857;28;20113;-72
2022/06/11 06:58:10;;;;;;;11.98;9.07;;;;;;;19.86;100.00;99919.53;5030832;28;20160;-72
2022/06/11 07:00:36;;;;;;;10.48;9.32;;;;;;;19.88;100.00;99926.50;5030880;28;20460;-73
2022/06/11 07:03:02;;;;;;;9.90;8.88;;;;;;;19.90;100.00;99928.25;5031027;28;20032;-73
2022/06/11 07:05:27;;;;;;;10.68;8.15;;;;;;;19.88;100.00;99930.88;5030679;28;20175;-73
2022/06/11 07:07:53;;;;;;;9.45;7.43;;;;;;;19.84;100.00;99918.72;5030840;28;20025;-73
2022/06/11 07:10:21;;;;;;;10.15;8.18;;;;;;;19.83;100.00;99930.06;5030670;28;20045;-74
2022/06/11 07:12:47;;;;;;;9.77;8.00;;;;;;;19.86;100.00;99932.63;5030678;28;20025;-73
2022/06/11 07:15:13;;;;;;;9.50;8.55;;;;;;;19.75;100.00;99924.88;5030931;28;20384;-73
2022/06/11 07:17:47;;;;;;;11.13;8.05;;;;;;;19.67;100.00;99921.44;5030739;28;20105;-73
2022/06/11 07:20:18;;;;;;;9.38;8.35;;;;;;;19.58;100.00;99938.09;5030730;28;20175;-73
2022/06/11 07:22:54;;;;;;;9.52;8.23;;;;;;;19.58;100.00;99945.97;5019398;28;20431;-73
2022/06/11 07:25:20;;;;;;;12.90;9.00;;;;;;;19.52;100.00;99932.94;5028515;28;20492;-73
2022/06/11 07:27:51;;;;;;;9.57;8.57;;;;;;;19.45;100.00;99920.75;5030745;28;20029;-73
2022/06/11 07:30:21;;;;;;;10.32;9.20;;;;;;;19.56;100.00;99939.88;5029975;28;20480;-73
2022/06/11 07:32:51;;;;;;;10.13;8.75;;;;;;;19.32;100.00;99910.38;5030280;28;20021;-73
2022/06/11 07:35:17;;;;;;;11.15;9.27;;;;;;;19.16;100.00;99899.16;5030511;28;20054;-75
2022/06/11 07:37:45;;;;;;;10.93;8.60;;;;;;;19.27;100.00;99911.31;5030515;28;20075;-73
2022/06/11 07:40:11;;;;;;;10.48;9.15;;;;;;;19.31;100.00;99941.81;5030273;28;20037;-74
2022/06/11 07:42:37;;;;;;;12.13;8.50;;;;;;;19.32;100.00;99947.03;5030395;28;20029;-73
2022/06/11 07:45:03;;;;;;;9.70;7.13;;;;;;;19.38;100.00;99941.75;5029811;28;20084;-73
2022/06/11 07:50:13;;;;;;;7.15;6.45;;;;;;;19.19;100.00;99941.03;5030464;28;20032;-74
2022/06/11 07:52:39;;;;;;;9.57;7.35;;;;;;;19.10;100.00;99943.69;5028879;28;20033;-73
2022/06/11 07:55:06;;;;;;;10.38;7.85;;;;;;;18.98;100.00;99941.16;5030496;28;20029;-72
2022/06/11 07:57:32;;;;;;;10.13;7.90;;;;;;;18.94;100.00;99944.66;5028148;28;20030;-73
2022/06/11 07:59:57;;;;;;;17.88;8.18;;;;;;;18.81;100.00;99933.38;5030449;28;20123;-73
2022/06/11 08:02:24;;;;;;;9.55;8.65;;;;;;;18.88;100.00;99935.94;5030061;28;20035;-74
2022/06/11 08:04:50;;;;;;;9.40;8.43;;;;;;;18.83;100.00;99937.72;5029060;28;20466;-73
2022/06/11 08:07:15;;;;;;;12.00;9.55;;;;;;;18.72;100.00;99924.72;5030505;28;20026;-75
2022/06/11 08:09:41;;;;;;;15.20;9.45;;;;;;;18.76;100.00;99936.03;5030759;28;20029;-73
2022/06/11 08:12:06;;;;;;;16.25;10.95;;;;;;;18.57;100.00;99914.34;5030764;28;20025;-74
2022/06/11 08:14:32;;;;;;;15.35;10.88;;;;;;;18.74;100.00;99948.22;5030239;28;20026;-74
2022/06/11 08:16:57;;;;;;;26.73;12.25;;;;;;;18.75;100.00;99945.63;5030411;28;20022;-72
2022/06/11 08:19:23;;;;;;;18.88;12.15;;;;;;;18.68;100.00;99943.03;5030578;28;20026;-72
2022/06/11 08:21:48;;;;;;;18.85;12.60;;;;;;;18.66;100.00;99950.03;5030380;28;20047;-73
2022/06/11 08:24:14;;;;;;;16.98;12.10;;;;;;;18.65;100.00;99949.13;5030426;28;20036;-72
2022/06/11 08:26:39;;;;;;;16.38;11.60;;;;;;;18.61;100.00;99951.78;5030493;28;20075;-72
2022/06/11 08:29:04;;;;;;;16.25;12.35;;;;;;;18.53;100.00;99951.81;5030509;28;20029;-72
2022/06/11 08:31:30;;;;;;;20.35;12.32;;;;;;;18.51;100.00;99943.13;5030527;28;20391;-73
2022/06/11 08:33:55;;;;;;;14.52;10.88;;;;;;;18.39;100.00;99939.69;5013606;28;20507;-70
2022/06/11 08:36:21;;;;;;;12.50;9.13;;;;;;;18.18;100.00;99948.47;5009891;28;20033;-72
2022/06/11 08:38:47;;;;;;;9.93;7.85;;;;;;;18.10;100.00;99951.06;5013040;28;20480;-72
2022/06/11 08:41:19;;;;;;;8.82;6.72;;;;;;;18.01;100.00;99945.00;5013935;28;20036;-72
2022/06/11 08:44:12;;;;;;;9.85;6.85;;;;;;;17.97;100.00;99946.75;5014367;28;20080;-74
2022/06/11 08:46:41;;;;;;;9.18;7.13;;;;;;;17.76;100.00;99927.59;4953295;29;20042;-73
2022/06/11 08:49:13;;;;;;;9.73;7.60;;;;;;;17.66;100.00;99904.09;4937318;29;20047;-74
2022/06/11 08:51:59;;;;;;;13.65;10.13;;;;;;;17.78;100.00;99943.25;4953333;29;20050;-74
2022/06/11 08:54:33;;;;;;;16.00;12.20;;;;;;;17.83;100.00;99940.66;4915030;29;20051;-72
2022/06/11 08:57:13;;;;;;;15.77;11.82;;;;;;;17.93;100.00;99942.34;4913631;29;20119;-71
2022/06/11 09:00:09;;;;;;;14.93;12.20;;;;;;;17.96;100.00;99947.63;4909449;29;20220;-73
2022/06/11 09:02:49;;;;;;;16.85;11.55;;;;;;;18.00;100.00;99940.66;4913820;29;20087;-75
2022/06/11 09:05:33;;;;;;;14.10;11.95;;;;;;;17.92;100.00;99938.03;4914376;29;20530;-74
2022/06/11 09:08:35;;;;;;;14.90;12.77;;;;;;;18.01;100.00;99932.81;4912807;29;20040;-73
2022/06/11 09:11:13;;;;;;;13.45;12.05;;;;;;;18.12;100.00;99932.78;4905944;29;20484;-71
2022/06/11 09:13:56;;;;;;;14.60;11.88;;;;;;;18.15;100.00;99931.91;4911603;29;20653;-73
2022/06/11 09:16:33;;;;;;;11.88;9.57;;;;;;;18.09;100.00;99935.41;4913107;29;20047;-73
2022/06/11 09:19:08;;;;;;;9.73;5.65;;;;;;;18.10;100.00;99931.91;4912499;29;20036;-70
2022/06/11 09:21:48;;;;;;;7.47;4.55;;;;;;;18.04;100.00;99921.50;4913878;29;20080;-74
2022/06/11 09:24:26;;;;;;;5.15;3.38;;;;;;;18.13;100.00;99938.88;4967513;28;20066;-73
2022/06/11 09:27:19;;;;;;;11.32;4.55;;;;;;;18.16;100.00;99937.13;5003838;28;20493;-70
2022/06/11 09:30:13;;;;;;;9.88;5.68;;;;;;;18.16;100.00;99923.22;4982368;28;20906;-72
2022/06/11 09:32:53;;;;;;;9.45;6.78;;;;;;;17.91;100.00;99929.31;4959176;28;20522;-73
2022/06/11 09:35:29;;;;;;;9.10;7.75;;;;;;;17.92;100.00;99935.44;4990205;28;20050;-73
2022/06/11 09:38:06;;;;;;;7.65;6.28;;;;;;;17.65;100.00;99900.63;4990563;28;20038;-74
2022/06/11 09:40:42;;;;;;;6.40;4.90;;;;;;;17.71;100.00;99936.31;4990202;28;20031;-73
2022/06/11 09:43:27;;;;;;;7.40;5.30;;;;;;;17.60;100.00;99933.72;4974085;28;20041;-73
2022/06/11 09:46:19;;;;;;;9.23;6.57;;;;;;;17.68;100.00;99925.88;4990122;28;20046;-73
2022/06/11 09:49:20;;;;;;;8.40;6.47;;;;;;;17.71;100.00;99916.28;4989016;28;20083;-74
2022/06/11 09:51:55;;;;;;;9.10;7.25;;;;;;;17.76;100.00;99911.94;4989149;28;20538;-74
2022/06/11 09:54:32;;;;;;;8.88;7.97;;;;;;;17.81;100.00;99904.09;4988857;28;20527;-73
2022/06/11 09:57:10;;;;;;;11.52;9.82;;;;;;;17.85;100.00;99902.34;4990643;28;20593;-74
2022/06/11 09:59:44;;;;;;;9.80;8.70;;;;;;;17.78;100.00;99876.25;4990579;28;20050;-73
2022/06/11 10:03:01;;;;;;;12.25;9.55;;;;;;;17.98;100.00;99900.59;4990214;28;20030;-73
2022/06/11 10:05:42;;;;;;;10.98;9.75;;;;;;;17.90;100.00;99872.72;4955011;28;20456;-74
2022/06/11 10:08:43;;;;;;;9.70;8.50;;;;;;;18.03;100.00;99904.97;4970744;28;20397;-73
2022/06/11 10:11:35;;;;;;;11.38;7.80;;;;;;;17.91;100.00;99905.81;4970620;28;20058;-74
2022/06/11 10:16:56;;;;;;;7.38;5.85;;;;;;;17.81;100.00;99883.22;4968204;28;20579;-74
2022/06/11 10:19:37;;;;;;;7.32;6.30;;;;;;;17.87;100.00;99911.94;4968926;28;20023;-73
2022/06/11 10:22:21;;;;;;;9.43;6.53;;;;;;;17.98;100.00;99908.44;4967695;28;20193;-73
2022/06/11 10:25:21;;;;;;;8.55;6.38;;;;;;;18.02;100.00;99908.44;4969462;28;20035;-73
2022/06/11 10:28:13;;;;;;;7.75;6.72;;;;;;;18.06;100.00;99906.69;4969041;28;20116;-73
2022/06/11 10:30:41;;;;;;;9.32;7.50;;;;;;;18.07;100.00;99903.22;4968038;28;20488;-72
2022/06/11 10:33:17;;;;;;;8.70;6.80;;;;;;;17.99;100.00;99900.59;4970197;28;20030;-73
2022/06/11 10:35:53;;;;;;;9.23;7.20;;;;;;;18.01;100.00;99904.09;4968616;28;20049;-72
2022/06/11 10:38:41;;;;;;;9.15;7.30;;;;;;;18.02;100.00;99899.72;4970397;28;20607;-75
2022/06/11 10:41:20;;;;;;;8.57;7.70;;;;;;;18.07;100.00;99895.38;4977166;28;20069;-73
2022/06/11 10:43:59;;;;;;;11.40;8.35;;;;;;;18.14;100.00;99893.59;5003059;28;20096;-71
2022/06/11 10:46:24;;;;;;;9.93;8.45;;;;;;;18.21;100.00;99901.41;5000054;28;20049;-73
2022/06/11 10:48:50;;;;;;;9.45;8.45;;;;;;;18.24;100.00;99893.56;4994143;28;20101;-73
2022/06/11 10:51:25;;;;;;;10.43;8.75;;;;;;;18.15;100.00;99854.41;4994031;28;20026;-73
2022/06/11 10:54:12;;;;;;;9.98;8.68;;;;;;;18.34;100.00;99883.91;4994084;28;20081;-72
2022/06/11 10:56:47;;;;;;;9.38;8.10;;;;;;;18.38;100.00;99880.44;4995702;28;20026;-72
2022/06/11 10:59:22;;;;;;;9.52;7.57;;;;;;;18.38;100.00;99879.56;5020582;28;20042;-71
2022/06/11 11:01:56;;;;;;;8.88;7.68;;;;;;;18.35;100.00;99874.34;5002151;28;20117;-72
2022/06/11 11:04:22;;;;;;;9.20;7.97;;;;;;;18.36;100.00;99878.72;5003141;28;20026;-73
2022/06/11 11:07:07;;;;;;;9.40;8.10;;;;;;;18.45;100.00;99883.03;5010868;28;20036;-73
2022/06/11 11:09:32;;;;;;;8.75;7.85;;;;;;;18.44;100.00;99882.13;5010920;28;20025;-74
2022/06/11 11:12:01;;;;;;;10.02;8.23;;;;;;;18.47;100.00;99889.97;5010695;28;20072;-73
2022/06/11 11:14:39;;;;;;;8.82;7.93;;;;;;;18.47;100.00;99882.16;5007440;28;20034;-73
2022/06/11 11:17:24;;;;;;;10.18;8.30;;;;;;;18.38;100.00;99861.25;5005195;28;20508;-73
2022/06/11 11:22:41;;;;;;;9.70;8.18;;;;;;;18.55;100.00;99869.88;4999380;28;20511;-73
2022/06/11 11:25:15;;;;;;;10.10;7.65;;;;;;;18.48;100.00;99854.25;4999385;28;20045;-74
2022/06/11 11:27:47;;;;;;;9.15;7.43;;;;;;;18.58;100.00;99859.44;5000142;28;20081;-73
2022/06/11 11:30:15;;;;;;;9.05;7.88;;;;;;;18.64;100.00;99858.53;5004413;28;20029;-74
2022/06/11 11:32:43;;;;;;;8.60;7.75;;;;;;;18.64;100.00;99860.25;5009144;28;20032;-74
2022/06/11 11:35:41;;;;;;;9.00;8.10;;;;;;;18.09;100.00;99761.28;5010771;28;20053;-73
2022/06/11 11:38:22;;;;;;;9.98;7.40;;;;;;;18.72;100.00;99858.47;5009339;28;20022;-73
2022/06/11 11:40:47;;;;;;;8.77;7.88;;;;;;;18.79;100.00;99856.69;5004518;28;20108;-72
2022/06/11 11:43:16;;;;;;;8.63;7.55;;;;;;;18.82;100.00;99852.31;5000477;28;20128;-73
2022/06/11 11:45:47;;;;;;;9.27;7.90;;;;;;;18.86;100.00;99858.38;4995634;28;20033;-73